XBFGP MMZH-MMPN
Flight info
| Callsign | XBFGP |
|---|---|
| Flight time | 0h 25m |
| Altitude | 14500 |
| Route | MMZH DCT MMPN |
| Aircraft | TBM9/L-V/N |
Departure
| Time | 2026-05-06 18:06 |
|---|---|
| Airport | Ixtapa-Zihuatanejo International Airport (MMZH) |
Arrival
| Time | 2026-05-06 18:32 |
|---|---|
| Airport | Uruapan - Licenciado y General Ignacio Lopez Rayon International Airport (MMPN) |
| Time | Latitude | Longitude | Altitude | Speed | Heading |
|---|---|---|---|---|---|
| 2026-05-06 18:02 | 17.60521 | -101.46156 | 23 ft | 0 kts | 270° |
| 2026-05-06 18:04 | 17.60520 | -101.46159 | 23 ft | 6 kts | 232° |
| 2026-05-06 18:04 | 17.60491 | -101.46231 | 22 ft | 25 kts | 241° |
| 2026-05-06 18:04 | 17.60340 | -101.46253 | 22 ft | 19 kts | 124° |
| 2026-05-06 18:04 | 17.60269 | -101.46131 | 23 ft | 20 kts | 123° |
| 2026-05-06 18:05 | 17.60184 | -101.46038 | 25 ft | 16 kts | 205° |
| 2026-05-06 18:05 | 17.60164 | -101.46067 | 24 ft | 0 kts | 270° |
| 2026-05-06 18:05 | 17.60158 | -101.46195 | 24 ft | 45 kts | 272° |
| 2026-05-06 18:05 | 17.60180 | -101.46682 | 21 ft | 86 kts | 271° |
| 2026-05-06 18:06 | 17.60210 | -101.47371 | 152 ft | 95 kts | 272° |
| 2026-05-06 18:06 | 17.60317 | -101.48077 | 389 ft | 94 kts | 301° |
| 2026-05-06 18:06 | 17.60910 | -101.48135 | 832 ft | 106 kts | 28° |
| 2026-05-06 18:06 | 17.61640 | -101.47713 | 1098 ft | 135 kts | 25° |
| 2026-05-06 18:07 | 17.62592 | -101.47270 | 1356 ft | 163 kts | 14° |
| 2026-05-06 18:07 | 17.63805 | -101.47200 | 1644 ft | 187 kts | 349° |
| 2026-05-06 18:07 | 17.65128 | -101.47579 | 1914 ft | 206 kts | 341° |
| 2026-05-06 18:07 | 17.66545 | -101.48066 | 2205 ft | 222 kts | 342° |
| 2026-05-06 18:08 | 17.68065 | -101.48552 | 2469 ft | 234 kts | 343° |
| 2026-05-06 18:08 | 17.69611 | -101.49039 | 2963 ft | 231 kts | 343° |
| 2026-05-06 18:08 | 17.71134 | -101.49531 | 3450 ft | 229 kts | 343° |
| 2026-05-06 18:08 | 17.72659 | -101.50024 | 3927 ft | 229 kts | 343° |
| 2026-05-06 18:09 | 17.74172 | -101.50505 | 4406 ft | 226 kts | 343° |
| 2026-05-06 18:09 | 17.75672 | -101.50984 | 4883 ft | 224 kts | 343° |
| 2026-05-06 18:09 | 17.77138 | -101.51454 | 5350 ft | 223 kts | 343° |
| 2026-05-06 18:09 | 17.78616 | -101.51926 | 5825 ft | 222 kts | 343° |
| 2026-05-06 18:10 | 17.80090 | -101.52396 | 6312 ft | 221 kts | 342° |
| 2026-05-06 18:10 | 17.81560 | -101.52867 | 6764 ft | 221 kts | 342° |
| 2026-05-06 18:10 | 17.83028 | -101.53336 | 7214 ft | 220 kts | 343° |
| 2026-05-06 18:10 | 17.84495 | -101.53805 | 7687 ft | 220 kts | 343° |
| 2026-05-06 18:11 | 17.85962 | -101.54275 | 8154 ft | 220 kts | 343° |
| 2026-05-06 18:11 | 17.87435 | -101.54746 | 8641 ft | 221 kts | 343° |
| 2026-05-06 18:11 | 17.88888 | -101.55212 | 9114 ft | 221 kts | 343° |
| 2026-05-06 18:11 | 17.90364 | -101.55684 | 9606 ft | 222 kts | 344° |
| 2026-05-06 18:12 | 17.91849 | -101.56158 | 10073 ft | 222 kts | 344° |
| 2026-05-06 18:12 | 17.93330 | -101.56632 | 10525 ft | 223 kts | 345° |
| 2026-05-06 18:12 | 17.94814 | -101.57111 | 10983 ft | 223 kts | 345° |
| 2026-05-06 18:12 | 17.96303 | -101.57587 | 11446 ft | 224 kts | 345° |
| 2026-05-06 18:13 | 17.97803 | -101.58063 | 11920 ft | 226 kts | 346° |
| 2026-05-06 18:13 | 17.99309 | -101.58548 | 12396 ft | 226 kts | 346° |
| 2026-05-06 18:13 | 18.00822 | -101.59033 | 12881 ft | 228 kts | 347° |
| 2026-05-06 18:13 | 18.02339 | -101.59517 | 13377 ft | 228 kts | 346° |
| 2026-05-06 18:14 | 18.03859 | -101.60006 | 13864 ft | 228 kts | 346° |
| 2026-05-06 18:14 | 18.05384 | -101.60495 | 14308 ft | 230 kts | 346° |
| 2026-05-06 18:14 | 18.06955 | -101.60995 | 14488 ft | 246 kts | 346° |
| 2026-05-06 18:14 | 18.08665 | -101.61537 | 14501 ft | 266 kts | 346° |
| 2026-05-06 18:15 | 18.10476 | -101.62116 | 14503 ft | 279 kts | 346° |
| 2026-05-06 18:15 | 18.12346 | -101.62711 | 14500 ft | 289 kts | 346° |
| 2026-05-06 18:15 | 18.14295 | -101.63332 | 14500 ft | 295 kts | 346° |
| 2026-05-06 18:15 | 18.16274 | -101.63972 | 14495 ft | 300 kts | 346° |
| 2026-05-06 18:16 | 18.18283 | -101.64622 | 14493 ft | 303 kts | 346° |
| 2026-05-06 18:16 | 18.20311 | -101.65272 | 14488 ft | 305 kts | 346° |
| 2026-05-06 18:16 | 18.22351 | -101.65922 | 14488 ft | 307 kts | 346° |
| 2026-05-06 18:16 | 18.24400 | -101.66579 | 14486 ft | 308 kts | 346° |
| 2026-05-06 18:17 | 18.26448 | -101.67239 | 14481 ft | 308 kts | 345° |
| 2026-05-06 18:17 | 18.28506 | -101.67904 | 14476 ft | 308 kts | 345° |
| 2026-05-06 18:17 | 18.30561 | -101.68565 | 14470 ft | 308 kts | 346° |
| 2026-05-06 18:17 | 18.32617 | -101.69224 | 14471 ft | 309 kts | 345° |
| 2026-05-06 18:18 | 18.34673 | -101.69885 | 14473 ft | 309 kts | 345° |
| 2026-05-06 18:18 | 18.36723 | -101.70542 | 14470 ft | 307 kts | 346° |
| 2026-05-06 18:18 | 18.38776 | -101.71208 | 14467 ft | 308 kts | 345° |
| 2026-05-06 18:18 | 18.40826 | -101.71870 | 14460 ft | 308 kts | 345° |
| 2026-05-06 18:19 | 18.42857 | -101.72518 | 14459 ft | 309 kts | 345° |
| 2026-05-06 18:19 | 18.44916 | -101.73181 | 14453 ft | 310 kts | 345° |
| 2026-05-06 18:19 | 18.46980 | -101.73847 | 14456 ft | 311 kts | 346° |
| 2026-05-06 18:19 | 18.49047 | -101.74511 | 14455 ft | 310 kts | 345° |
| 2026-05-06 18:20 | 18.51115 | -101.75180 | 14451 ft | 310 kts | 345° |
| 2026-05-06 18:20 | 18.53182 | -101.75845 | 14449 ft | 311 kts | 345° |
| 2026-05-06 18:20 | 18.55255 | -101.76513 | 14444 ft | 310 kts | 345° |
| 2026-05-06 18:20 | 18.57318 | -101.77179 | 14448 ft | 310 kts | 345° |
| 2026-05-06 18:21 | 18.59380 | -101.77846 | 14442 ft | 310 kts | 345° |
| 2026-05-06 18:21 | 18.61415 | -101.78499 | 14437 ft | 309 kts | 345° |
| 2026-05-06 18:21 | 18.63472 | -101.79164 | 14437 ft | 309 kts | 345° |
| 2026-05-06 18:21 | 18.65529 | -101.79830 | 14438 ft | 309 kts | 345° |
| 2026-05-06 18:22 | 18.67587 | -101.80493 | 14440 ft | 309 kts | 345° |
| 2026-05-06 18:22 | 18.68951 | -101.80932 | 14441 ft | 310 kts | 345° |
| 2026-05-06 18:22 | 18.71017 | -101.81599 | 14439 ft | 310 kts | 345° |
| 2026-05-06 18:22 | 18.73077 | -101.82266 | 14441 ft | 310 kts | 345° |
| 2026-05-06 18:23 | 18.75136 | -101.82933 | 14438 ft | 309 kts | 345° |
| 2026-05-06 18:23 | 18.77201 | -101.83599 | 14439 ft | 309 kts | 345° |
| 2026-05-06 18:23 | 18.79253 | -101.84263 | 14439 ft | 308 kts | 345° |
| 2026-05-06 18:23 | 18.81278 | -101.84918 | 14439 ft | 309 kts | 345° |
| 2026-05-06 18:24 | 18.83333 | -101.85583 | 14442 ft | 309 kts | 345° |
| 2026-05-06 18:24 | 18.85384 | -101.86247 | 14443 ft | 308 kts | 345° |
| 2026-05-06 18:24 | 18.87439 | -101.86911 | 14443 ft | 309 kts | 345° |
| 2026-05-06 18:24 | 18.89493 | -101.87577 | 14448 ft | 309 kts | 345° |
| 2026-05-06 18:25 | 18.91556 | -101.88243 | 14442 ft | 310 kts | 345° |
| 2026-05-06 18:25 | 18.93610 | -101.88910 | 14453 ft | 309 kts | 344° |
| 2026-05-06 18:25 | 18.95669 | -101.89577 | 14453 ft | 309 kts | 345° |
| 2026-05-06 18:25 | 18.97730 | -101.90245 | 14452 ft | 310 kts | 345° |
| 2026-05-06 18:26 | 18.99785 | -101.90911 | 14453 ft | 309 kts | 344° |
| 2026-05-06 18:26 | 19.01846 | -101.91579 | 14404 ft | 311 kts | 344° |
| 2026-05-06 18:26 | 19.03949 | -101.92257 | 13983 ft | 324 kts | 345° |
| 2026-05-06 18:26 | 19.06156 | -101.92956 | 13321 ft | 336 kts | 345° |
| 2026-05-06 18:27 | 19.08410 | -101.93688 | 12666 ft | 341 kts | 344° |
| 2026-05-06 18:27 | 19.10677 | -101.94441 | 12023 ft | 340 kts | 344° |
| 2026-05-06 18:27 | 19.12928 | -101.95172 | 11387 ft | 335 kts | 344° |
| 2026-05-06 18:27 | 19.15140 | -101.95885 | 10764 ft | 330 kts | 343° |
| 2026-05-06 18:28 | 19.17292 | -101.96582 | 10161 ft | 325 kts | 343° |
| 2026-05-06 18:28 | 19.19442 | -101.97285 | 9505 ft | 321 kts | 343° |
| 2026-05-06 18:28 | 19.21563 | -101.97975 | 8847 ft | 317 kts | 343° |
| 2026-05-06 18:28 | 19.23663 | -101.98656 | 8202 ft | 314 kts | 343° |
| 2026-05-06 18:29 | 19.25747 | -101.99333 | 7567 ft | 311 kts | 343° |
| 2026-05-06 18:29 | 19.27785 | -101.99999 | 7354 ft | 290 kts | 343° |
| 2026-05-06 18:29 | 19.29511 | -102.00569 | 7426 ft | 234 kts | 342° |
| 2026-05-06 18:29 | 19.30970 | -102.01072 | 7445 ft | 209 kts | 342° |
| 2026-05-06 18:30 | 19.32312 | -102.01507 | 7449 ft | 196 kts | 343° |
| 2026-05-06 18:30 | 19.33570 | -102.01974 | 7399 ft | 190 kts | 333° |
| 2026-05-06 18:30 | 19.34782 | -102.02566 | 7296 ft | 194 kts | 332° |
| 2026-05-06 18:30 | 19.35971 | -102.03298 | 6807 ft | 207 kts | 330° |
| 2026-05-06 18:31 | 19.37000 | -102.04127 | 6487 ft | 148 kts | 321° |
| 2026-05-06 18:31 | 19.37902 | -102.04610 | 5425 ft | 146 kts | 345° |
| 2026-05-06 18:31 | 19.38771 | -102.04445 | 5221 ft | 111 kts | 28° |
| 2026-05-06 18:31 | 19.39352 | -102.04085 | 5232 ft | 91 kts | 32° |
| 2026-05-06 18:32 | 19.39934 | -102.03792 | 5245 ft | 91 kts | 359° |
| 2026-05-06 18:32 | 19.40244 | -102.03814 | 5251 ft | 0 kts | 312° |